createdAt,value
2022-10-17T00:01:14.678Z,5.03
2022-10-17T00:03:43.375Z,4.20
2022-10-17T00:06:15.995Z,3.95
2022-10-17T00:08:45.967Z,4.25
2022-10-17T00:11:19.492Z,4.43
2022-10-17T00:13:48.668Z,4.50
2022-10-17T00:16:23.945Z,3.92
2022-10-17T00:18:52.276Z,4.32
2022-10-17T00:21:23.307Z,3.95
2022-10-17T00:23:51.935Z,3.97
2022-10-17T00:26:20.818Z,4.32
2022-10-17T00:28:50.422Z,4.05
2022-10-17T00:31:21.917Z,5.47
2022-10-17T00:33:52.006Z,4.22
2022-10-17T00:36:24.286Z,4.05
2022-10-17T00:38:56.552Z,3.70
2022-10-17T00:41:27.692Z,3.72
2022-10-17T00:43:59.875Z,4.43
2022-10-17T00:46:31.374Z,3.78
2022-10-17T00:49:07.782Z,4.10
2022-10-17T00:51:43.313Z,3.75
2022-10-17T00:54:14.757Z,4.40
2022-10-17T00:56:43.700Z,4.20
2022-10-17T00:59:14.761Z,3.08
2022-10-17T01:01:48.030Z,3.30
2022-10-17T01:04:16.819Z,3.58
2022-10-17T01:06:46.421Z,2.83
2022-10-17T01:09:15.109Z,3.63
2022-10-17T01:11:53.347Z,3.17
2022-10-17T01:14:32.306Z,3.13
2022-10-17T01:17:10.855Z,3.40
2022-10-17T01:20:16.547Z,3.47
2022-10-17T01:22:52.985Z,3.17
2022-10-17T01:25:36.136Z,3.65
2022-10-17T01:28:30.600Z,3.45
2022-10-17T01:31:09.021Z,3.90
2022-10-17T01:33:54.637Z,3.33
2022-10-17T01:36:37.647Z,3.05
2022-10-17T01:39:16.934Z,3.67
2022-10-17T01:41:53.759Z,3.55
2022-10-17T01:44:28.496Z,2.97
2022-10-17T01:47:04.308Z,3.45
2022-10-17T01:49:36.272Z,4.10
2022-10-17T01:52:09.875Z,3.63
2022-10-17T01:54:43.617Z,4.00
2022-10-17T01:57:19.193Z,3.92
2022-10-17T01:59:51.181Z,4.00
2022-10-17T02:02:22.297Z,3.88
2022-10-17T02:04:53.338Z,4.05
2022-10-17T02:07:21.681Z,4.05
2022-10-17T02:09:50.283Z,3.75
2022-10-17T02:12:46.551Z,3.55
2022-10-17T02:15:57.883Z,3.10
2022-10-17T02:19:01.772Z,3.08
2022-10-17T02:21:41.372Z,3.65
2022-10-17T02:24:20.594Z,3.17
2022-10-17T02:26:57.664Z,2.92
2022-10-17T02:29:31.489Z,3.10
2022-10-17T02:32:05.753Z,2.80
2022-10-17T02:34:39.650Z,2.58
2022-10-17T02:37:11.712Z,3.30
2022-10-17T02:39:43.677Z,3.40
2022-10-17T02:42:16.028Z,3.33
2022-10-17T02:44:46.471Z,3.05
2022-10-17T02:47:23.289Z,3.33
2022-10-17T02:49:56.179Z,2.97
2022-10-17T02:52:31.250Z,3.28
2022-10-17T02:55:07.612Z,2.50
2022-10-17T02:57:39.913Z,3.25
2022-10-17T03:00:13.178Z,3.30
2022-10-17T03:02:44.851Z,3.13
2022-10-17T03:05:18.520Z,3.80
2022-10-17T03:07:47.238Z,3.20
2022-10-17T03:10:16.119Z,3.83
2022-10-17T03:12:44.663Z,3.47
2022-10-17T03:15:15.016Z,3.72
2022-10-17T03:20:16.712Z,3.38
2022-10-17T03:22:45.295Z,3.15
2022-10-17T03:25:13.521Z,3.95
2022-10-17T03:27:41.892Z,3.60
2022-10-17T03:30:11.527Z,3.40
2022-10-17T03:32:40.288Z,3.20
2022-10-17T03:35:12.617Z,3.50
2022-10-17T03:37:46.734Z,3.70
2022-10-17T03:40:16.615Z,2.50
2022-10-17T03:42:45.643Z,3.58
2022-10-17T03:45:14.272Z,3.55
2022-10-17T03:47:43.788Z,3.67
2022-10-17T03:50:12.371Z,3.35
2022-10-17T03:52:41.353Z,4.03
2022-10-17T03:55:11.752Z,3.60
2022-10-17T03:57:43.372Z,2.70
2022-10-17T04:00:15.074Z,3.17
2022-10-17T04:02:44.882Z,3.65
2022-10-17T04:05:19.383Z,3.88
2022-10-17T04:07:48.988Z,3.15
2022-10-17T04:10:20.509Z,3.13
2022-10-17T04:12:49.413Z,4.10
2022-10-17T04:15:19.521Z,3.45
2022-10-17T04:17:48.627Z,3.50
2022-10-17T04:20:18.187Z,4.03
2022-10-17T04:22:46.834Z,3.83
2022-10-17T04:25:15.431Z,3.88
2022-10-17T04:27:49.002Z,3.97
2022-10-17T04:30:18.022Z,4.18
2022-10-17T04:32:47.302Z,3.97
2022-10-17T04:35:22.001Z,4.10
2022-10-17T04:37:56.552Z,5.25
2022-10-17T04:40:25.030Z,4.20
2022-10-17T04:42:55.581Z,4.47
2022-10-17T04:45:31.672Z,4.38
2022-10-17T04:48:03.972Z,4.00
2022-10-17T04:50:32.201Z,4.28
2022-10-17T04:53:31.508Z,4.35
2022-10-17T04:56:00.252Z,4.10
2022-10-17T04:58:31.480Z,4.25
2022-10-17T05:01:00.092Z,3.67
2022-10-17T05:03:30.996Z,3.83
2022-10-17T05:06:00.160Z,4.93
2022-10-17T05:08:28.704Z,4.07
2022-10-17T05:10:57.072Z,3.63
2022-10-17T05:13:25.376Z,3.45
2022-10-17T05:15:55.100Z,3.90
2022-10-17T05:18:23.680Z,3.65
2022-10-17T05:20:51.957Z,4.07
2022-10-17T05:23:20.555Z,3.72
2022-10-17T05:25:49.219Z,4.07
2022-10-17T05:28:17.711Z,3.78
2022-10-17T05:30:46.243Z,3.30
2022-10-17T05:33:15.888Z,4.30
2022-10-17T05:35:44.181Z,3.58
2022-10-17T05:38:12.748Z,3.33
2022-10-17T05:40:43.932Z,4.35
2022-10-17T05:43:12.655Z,3.80
2022-10-17T05:45:42.501Z,4.25
2022-10-17T05:48:16.913Z,4.18
2022-10-17T05:50:45.745Z,3.72
2022-10-17T05:53:17.487Z,4.07
2022-10-17T05:55:58.356Z,3.45
2022-10-17T06:01:34.828Z,3.88
2022-10-17T06:04:04.790Z,3.97
2022-10-17T06:06:33.605Z,3.88
2022-10-17T06:09:02.689Z,4.10
2022-10-17T06:11:34.821Z,3.78
2022-10-17T06:14:03.324Z,4.25
2022-10-17T06:16:32.145Z,4.03
2022-10-17T06:19:01.307Z,4.60
2022-10-17T06:21:34.311Z,4.38
2022-10-17T06:26:44.405Z,4.60
2022-10-17T06:29:14.905Z,3.90
2022-10-17T06:31:51.900Z,4.65
2022-10-17T06:34:21.150Z,3.90
2022-10-17T06:36:50.815Z,4.10
2022-10-17T06:39:20.597Z,4.53
2022-10-17T06:42:05.560Z,3.95
2022-10-17T06:44:59.994Z,4.18
2022-10-17T06:47:44.444Z,4.40
2022-10-17T06:50:29.237Z,4.03
2022-10-17T06:53:12.083Z,4.43
2022-10-17T06:56:15.885Z,4.03
2022-10-17T06:59:00.947Z,4.40
2022-10-17T07:01:36.717Z,4.85
2022-10-17T07:04:06.559Z,3.85
2022-10-17T07:06:36.005Z,3.65
2022-10-17T07:11:40.180Z,3.33
2022-10-17T07:14:08.649Z,3.90
2022-10-17T07:16:37.570Z,3.28
2022-10-17T07:19:32.072Z,3.40
2022-10-17T07:22:00.484Z,3.42
2022-10-17T07:24:30.426Z,3.15
2022-10-17T07:27:06.392Z,3.28
2022-10-17T07:29:35.378Z,2.95
2022-10-17T07:32:10.665Z,3.95
2022-10-17T07:34:39.197Z,3.47
2022-10-17T07:37:09.900Z,3.17
2022-10-17T07:39:41.661Z,3.05
2022-10-17T07:42:11.803Z,2.90
2022-10-17T07:44:40.343Z,2.78
2022-10-17T07:47:08.598Z,2.97
2022-10-17T07:49:42.381Z,3.30
2022-10-17T07:52:12.040Z,2.92
2022-10-17T07:54:41.894Z,3.78
2022-10-17T07:57:10.759Z,2.78
2022-10-17T07:59:39.693Z,2.42
2022-10-17T08:02:10.359Z,2.90
2022-10-17T08:04:39.089Z,2.85
2022-10-17T08:07:21.001Z,3.55
2022-10-17T08:09:53.022Z,3.03
2022-10-17T08:12:21.249Z,3.13
2022-10-17T08:14:49.508Z,3.17
2022-10-17T08:17:18.007Z,3.38
2022-10-17T08:19:46.234Z,2.95
2022-10-17T08:22:14.418Z,3.55
2022-10-17T08:24:44.480Z,3.30
2022-10-17T08:27:14.356Z,3.80
2022-10-17T08:29:42.656Z,3.47
2022-10-17T08:32:10.872Z,3.58
2022-10-17T08:34:39.361Z,3.42
2022-10-17T08:37:07.992Z,3.33
2022-10-17T08:39:36.316Z,3.63
2022-10-17T08:42:33.732Z,3.85
2022-10-17T08:45:14.657Z,3.85
2022-10-17T08:47:47.158Z,3.58
2022-10-17T08:50:24.933Z,3.42
2022-10-17T08:52:56.823Z,4.10
2022-10-17T08:55:34.193Z,3.22
2022-10-17T08:58:03.805Z,4.00
2022-10-17T09:00:33.724Z,3.95
2022-10-17T09:03:20.884Z,2.67
2022-10-17T09:05:55.734Z,3.00
2022-10-17T09:11:08.706Z,2.38
2022-10-17T09:14:01.304Z,2.95
2022-10-17T09:16:51.612Z,2.53
2022-10-17T09:19:26.519Z,2.63
2022-10-17T09:21:59.917Z,2.22
2022-10-17T09:24:41.065Z,2.28
2022-10-17T09:27:23.278Z,2.42
2022-10-17T09:30:40.188Z,2.92
2022-10-17T09:33:23.339Z,2.20
2022-10-17T09:36:03.559Z,2.33
2022-10-17T09:38:40.623Z,2.10
2022-10-17T09:41:44.232Z,2.92
2022-10-17T09:44:21.759Z,2.83
2022-10-17T09:47:17.331Z,2.83
2022-10-17T09:52:18.888Z,2.28
2022-10-17T09:54:49.389Z,2.17
2022-10-17T09:57:20.314Z,1.83
2022-10-17T09:59:58.925Z,2.05
2022-10-17T10:02:32.641Z,2.00
2022-10-17T10:05:06.677Z,2.20
2022-10-17T10:07:39.072Z,1.88
2022-10-17T10:10:27.755Z,2.13
2022-10-17T10:13:21.356Z,2.78
2022-10-17T10:15:52.110Z,2.38
2022-10-17T10:18:36.831Z,2.90
2022-10-17T10:21:13.231Z,2.33
2022-10-17T10:23:43.720Z,2.92
2022-10-17T10:26:24.220Z,2.53
2022-10-17T10:29:03.240Z,3.03
2022-10-17T10:31:36.800Z,2.50
2022-10-17T10:34:19.527Z,2.67
2022-10-17T10:36:57.360Z,3.00
2022-10-17T10:39:47.032Z,2.45
2022-10-17T10:42:27.661Z,2.22
2022-10-17T10:45:02.449Z,2.00
2022-10-17T10:47:32.607Z,2.78
2022-10-17T10:50:28.112Z,2.72
2022-10-17T10:53:23.279Z,2.20
2022-10-17T10:55:56.111Z,2.40
2022-10-17T10:58:43.444Z,2.60
2022-10-17T11:01:21.566Z,2.08
2022-10-17T11:04:06.064Z,2.53
2022-10-17T11:06:40.155Z,2.20
2022-10-17T11:09:24.445Z,2.17
2022-10-17T11:12:01.550Z,2.47
2022-10-17T11:14:41.231Z,2.20
2022-10-17T11:17:18.744Z,2.38
2022-10-17T11:19:53.393Z,2.60
2022-10-17T11:25:03.866Z,2.53
2022-10-17T11:27:32.801Z,2.22
2022-10-17T11:30:01.487Z,1.70
2022-10-17T11:32:36.049Z,2.00
2022-10-17T11:35:15.912Z,2.10
2022-10-17T11:37:51.649Z,2.20
2022-10-17T11:40:29.847Z,1.60
2022-10-17T11:43:02.553Z,1.65
2022-10-17T11:45:44.244Z,2.33
2022-10-17T11:48:21.702Z,1.90
2022-10-17T11:53:58.024Z,2.40
2022-10-17T11:56:41.846Z,1.65
2022-10-17T11:59:48.656Z,1.23
2022-10-17T12:02:28.679Z,1.58
2022-10-17T12:05:05.689Z,1.17
2022-10-17T12:10:35.101Z,1.42
2022-10-17T12:13:51.565Z,1.30
2022-10-17T12:16:46.833Z,1.50
2022-10-17T12:22:19.448Z,1.92
2022-10-17T12:24:57.836Z,1.52
2022-10-17T12:27:46.186Z,1.50
2022-10-17T12:30:24.653Z,1.50
2022-10-17T12:33:21.798Z,2.03
2022-10-17T12:35:52.060Z,1.02
2022-10-17T12:38:28.533Z,1.45
2022-10-17T12:41:14.461Z,1.70
2022-10-17T12:43:54.808Z,1.30
2022-10-17T12:46:59.613Z,1.30
2022-10-17T12:49:51.097Z,1.58
2022-10-17T12:52:41.978Z,2.90
2022-10-17T12:55:15.527Z,1.55
2022-10-17T12:57:52.295Z,1.60
2022-10-17T13:00:34.774Z,1.60
2022-10-17T13:03:13.925Z,1.70
2022-10-17T13:05:49.586Z,1.75
2022-10-17T13:08:22.953Z,1.50
2022-10-17T13:10:54.665Z,1.40
2022-10-17T13:13:28.448Z,4.43
2022-10-17T13:15:58.060Z,1.50
2022-10-17T13:18:28.911Z,1.67
2022-10-17T13:21:00.205Z,1.98
2022-10-17T13:23:33.814Z,1.33
2022-10-17T13:26:14.435Z,1.75
2022-10-17T13:28:43.593Z,1.60
2022-10-17T13:34:06.777Z,1.20
2022-10-17T13:36:36.483Z,1.60
2022-10-17T13:39:12.202Z,1.17
2022-10-17T13:41:43.541Z,2.35
2022-10-17T13:44:19.927Z,1.52
2022-10-17T13:46:48.929Z,1.52
2022-10-17T13:49:26.005Z,1.70
2022-10-17T13:51:57.321Z,1.40
2022-10-17T13:54:37.616Z,1.17
2022-10-17T13:57:07.575Z,1.60
2022-10-17T13:59:40.544Z,1.70
2022-10-17T14:02:16.924Z,1.42
2022-10-17T14:08:09.316Z,1.50
2022-10-17T14:10:37.411Z,1.42
2022-10-17T14:13:08.140Z,1.60
2022-10-17T14:15:37.970Z,1.63
2022-10-17T14:18:09.300Z,1.73
2022-10-17T14:23:36.169Z,1.63
2022-10-17T14:26:15.243Z,1.85
2022-10-17T14:28:47.284Z,2.17
2022-10-17T14:31:31.543Z,1.60
2022-10-17T14:34:01.107Z,1.20
2022-10-17T14:36:39.806Z,1.52
2022-10-17T14:39:19.425Z,1.50
2022-10-17T14:41:48.763Z,1.40
2022-10-17T14:44:30.260Z,1.48
2022-10-17T14:47:18.286Z,1.70
2022-10-17T14:49:52.482Z,1.77
2022-10-17T14:52:33.439Z,2.88
2022-10-17T14:55:23.899Z,1.45
2022-10-17T14:57:52.576Z,2.17
2022-10-17T15:00:23.032Z,1.85
2022-10-17T15:02:53.729Z,2.10
2022-10-17T15:05:23.285Z,1.77
2022-10-17T15:07:53.477Z,2.15
2022-10-17T15:10:33.672Z,2.08
2022-10-17T15:15:52.316Z,1.77
2022-10-17T15:18:20.920Z,2.10
2022-10-17T15:20:55.348Z,2.20
2022-10-17T15:23:34.397Z,1.80
2022-10-17T15:26:02.871Z,1.67
2022-10-17T15:28:31.177Z,1.77
2022-10-17T15:30:59.748Z,1.92
2022-10-17T15:33:28.027Z,1.77
2022-10-17T15:38:29.740Z,2.40
2022-10-17T15:40:59.337Z,1.75
2022-10-17T15:43:27.520Z,2.00
2022-10-17T15:45:55.798Z,1.65
2022-10-17T15:48:33.496Z,1.85
2022-10-17T15:51:02.086Z,2.22
2022-10-17T15:53:30.300Z,1.80
2022-10-17T15:56:00.759Z,2.75
2022-10-17T15:58:35.105Z,1.75
2022-10-17T16:03:32.646Z,1.50
2022-10-17T16:06:01.314Z,1.98
2022-10-17T16:08:29.511Z,2.03
2022-10-17T16:10:59.544Z,2.08
2022-10-17T16:13:27.916Z,2.00
2022-10-17T16:15:56.119Z,2.40
2022-10-17T16:18:24.295Z,2.30
2022-10-17T16:20:52.555Z,2.80
2022-10-17T16:23:20.763Z,2.88
2022-10-17T16:25:48.939Z,2.58
2022-10-17T16:28:18.489Z,1.80
2022-10-17T16:30:46.668Z,2.42
2022-10-17T16:33:14.951Z,2.22
2022-10-17T16:35:43.550Z,1.73
2022-10-17T16:38:12.028Z,2.20
2022-10-17T16:40:40.783Z,2.70
2022-10-17T16:43:11.760Z,2.33
2022-10-17T16:45:42.159Z,1.90
2022-10-17T16:48:12.308Z,2.17
2022-10-17T16:50:41.397Z,3.83
2022-10-17T16:53:09.952Z,2.72
2022-10-17T16:55:38.162Z,2.90
2022-10-17T16:58:06.336Z,2.67
2022-10-17T17:00:34.605Z,2.58
2022-10-17T17:03:04.251Z,2.33
2022-10-17T17:05:32.477Z,3.20
2022-10-17T17:08:00.918Z,3.80
2022-10-17T17:10:29.154Z,3.15
2022-10-17T17:12:57.328Z,7.85
2022-10-17T17:15:25.812Z,15.00
2022-10-17T17:17:55.714Z,5.35
2022-10-17T17:20:25.844Z,3.08
2022-10-17T17:22:54.360Z,3.05
2022-10-17T17:25:23.382Z,3.50
2022-10-17T17:27:51.912Z,4.57
2022-10-17T17:30:20.296Z,3.30
2022-10-17T17:32:48.545Z,4.45
2022-10-17T17:35:16.960Z,3.50
2022-10-17T17:37:46.534Z,3.50
2022-10-17T17:40:15.063Z,3.35
2022-10-17T17:42:43.651Z,3.33
2022-10-17T17:45:12.707Z,3.53
2022-10-17T17:47:40.899Z,3.40
2022-10-17T17:50:09.993Z,3.35
2022-10-17T17:52:40.247Z,3.25
2022-10-17T17:55:10.773Z,3.75
2022-10-17T17:57:39.363Z,3.78
2022-10-17T18:00:09.690Z,8.65
2022-10-17T18:02:42.106Z,5.32
2022-10-17T18:07:41.107Z,5.13
2022-10-17T18:12:44.026Z,4.28
2022-10-17T18:15:13.319Z,4.18
2022-10-17T18:17:42.065Z,3.92
2022-10-17T18:20:11.616Z,3.65
2022-10-17T18:22:40.211Z,3.90
2022-10-17T18:25:10.681Z,3.20
2022-10-17T18:27:39.240Z,3.67
2022-10-17T18:30:09.377Z,3.33
2022-10-17T18:32:37.904Z,3.30
2022-10-17T18:35:06.973Z,3.75
2022-10-17T18:37:35.312Z,3.33
2022-10-17T18:40:03.669Z,4.10
2022-10-17T18:42:33.467Z,3.60
2022-10-17T18:45:03.202Z,4.28
2022-10-17T18:47:31.648Z,4.13
2022-10-17T18:50:00.402Z,4.30
2022-10-17T18:52:29.040Z,4.40
2022-10-17T18:54:57.548Z,4.20
2022-10-17T18:57:26.463Z,3.78
2022-10-17T18:59:56.029Z,3.33
2022-10-17T19:02:24.608Z,4.03
2022-10-17T19:04:53.510Z,3.83
2022-10-17T19:07:21.995Z,4.93
2022-10-17T19:09:50.552Z,4.55
2022-10-17T19:12:19.203Z,4.50
2022-10-17T19:14:49.629Z,3.90
2022-10-17T19:17:19.341Z,5.20
2022-10-17T19:19:50.223Z,5.00
2022-10-17T19:22:18.757Z,5.57
2022-10-17T19:24:47.420Z,5.10
2022-10-17T19:27:15.722Z,4.70
2022-10-17T19:29:44.042Z,4.43
2022-10-17T19:32:16.701Z,3.90
2022-10-17T19:34:48.772Z,4.28
2022-10-17T19:37:16.996Z,3.90
2022-10-17T19:39:45.190Z,4.82
2022-10-17T19:42:13.672Z,4.28
2022-10-17T19:44:41.913Z,3.95
2022-10-17T19:47:10.387Z,5.45
2022-10-17T19:49:38.986Z,4.25
2022-10-17T19:52:08.696Z,4.68
2022-10-17T19:54:38.893Z,4.65
2022-10-17T19:57:09.649Z,4.88
2022-10-17T19:59:39.166Z,4.15
2022-10-17T20:02:07.752Z,5.35
2022-10-17T20:04:39.431Z,4.65
2022-10-17T20:07:12.061Z,4.22
2022-10-17T20:09:40.295Z,4.78
2022-10-17T20:12:08.780Z,4.80
2022-10-17T20:14:40.914Z,6.10
2022-10-17T20:17:09.499Z,5.97
2022-10-17T20:19:37.670Z,4.93
2022-10-17T20:22:05.922Z,4.57
2022-10-17T20:24:35.453Z,4.93
2022-10-17T20:27:04.304Z,4.53
2022-10-17T20:29:32.886Z,4.65
2022-10-17T20:32:01.505Z,4.20
2022-10-17T20:34:34.704Z,4.95
2022-10-17T20:37:03.371Z,5.05
2022-10-17T20:39:31.909Z,5.72
2022-10-17T20:42:02.038Z,5.28
2022-10-17T20:44:30.664Z,4.97
2022-10-17T20:47:02.032Z,5.20
2022-10-17T20:49:32.290Z,5.03
2022-10-17T20:52:01.386Z,5.60
2022-10-17T20:54:30.007Z,5.63
2022-10-17T20:57:01.133Z,4.68
2022-10-17T20:59:34.492Z,5.10
2022-10-17T21:02:03.235Z,4.75
2022-10-17T21:04:47.652Z,4.95
2022-10-17T21:07:16.702Z,5.63
2022-10-17T21:09:46.293Z,5.47
2022-10-17T21:12:25.874Z,5.15
2022-10-17T21:15:06.865Z,5.65
2022-10-17T21:17:35.441Z,5.25
2022-10-17T21:20:04.072Z,5.07
2022-10-17T21:22:33.799Z,5.00
2022-10-17T21:25:02.337Z,4.07
2022-10-17T21:27:30.870Z,4.95
2022-10-17T21:29:59.460Z,4.88
2022-10-17T21:32:40.261Z,4.85
2022-10-17T21:35:16.029Z,5.03
2022-10-17T21:37:44.209Z,4.25
2022-10-17T21:40:13.869Z,4.13
2022-10-17T21:42:42.484Z,5.22
2022-10-17T21:45:15.717Z,4.97
2022-10-17T21:48:11.719Z,5.18
2022-10-17T21:50:38.259Z,6.35
2022-10-17T21:53:06.468Z,6.47
2022-10-17T21:55:37.306Z,4.55
2022-10-17T21:58:06.192Z,5.18
2022-10-17T22:00:34.736Z,5.60
2022-10-17T22:03:05.828Z,5.68
2022-10-17T22:05:34.425Z,5.03
2022-10-17T22:08:02.827Z,5.03
2022-10-17T22:10:31.442Z,5.28
2022-10-17T22:13:00.298Z,6.03
2022-10-17T22:15:28.851Z,5.13
2022-10-17T22:17:57.531Z,6.18
2022-10-17T22:20:27.201Z,5.35
2022-10-17T22:22:55.429Z,4.90
2022-10-17T22:25:23.911Z,4.95
2022-10-17T22:27:52.688Z,5.53
2022-10-17T22:30:21.219Z,5.32
2022-10-17T22:32:49.744Z,4.97
2022-10-17T22:35:18.615Z,5.57
2022-10-17T22:37:48.469Z,5.47
2022-10-17T22:40:17.124Z,5.32
2022-10-17T22:42:45.813Z,5.55
2022-10-17T22:45:14.435Z,5.85
2022-10-17T22:47:42.907Z,5.82
2022-10-17T22:50:11.608Z,5.47
2022-10-17T22:52:39.830Z,6.10
2022-10-17T22:55:10.663Z,5.68
2022-10-17T22:57:40.355Z,5.68
2022-10-17T23:00:11.690Z,5.70
2022-10-17T23:02:40.336Z,6.20
2022-10-17T23:05:09.496Z,5.60
2022-10-17T23:07:38.092Z,5.53
2022-10-17T23:10:07.632Z,5.63
2022-10-17T23:12:37.215Z,6.13
2022-10-17T23:15:06.564Z,5.47
2022-10-17T23:17:35.203Z,6.53
2022-10-17T23:20:03.929Z,6.38
2022-10-17T23:22:32.828Z,6.35
2022-10-17T23:25:01.528Z,6.03
2022-10-17T23:30:06.378Z,6.00
2022-10-17T23:32:34.919Z,5.05
2022-10-17T23:35:03.572Z,5.65
2022-10-17T23:37:32.691Z,5.80
2022-10-17T23:40:01.723Z,5.25
2022-10-17T23:42:30.382Z,5.55
2022-10-17T23:44:58.590Z,5.78
2022-10-17T23:47:28.429Z,6.13
2022-10-17T23:49:56.781Z,5.72
2022-10-17T23:52:25.916Z,5.93
2022-10-17T23:54:54.472Z,6.05
2022-10-17T23:57:23.043Z,6.13
2022-10-17T23:59:51.594Z,5.22
